Time;durP1;ratioP1;P1;durP2;ratioP2;P2;SDS_P1;SDS_P2;PMS_P1;PMS_P2;Temp;Humidity;BMP_temperature;BMP_pressure;BME280_temperature;BME280_humidity;BME280_pressure;Samples;Min_cycle;Max_cycle;Signal;HPM_P1;HPM_P2
2022/03/22 00:00:51;;;;;;;52.20;26.70;;;;;;;;;;5067433;28;20700;-64
2022/03/22 00:03:19;;;;;;;49.97;25.27;;;;;;;;;;5082697;28;20119;-64
2022/03/22 00:05:45;;;;;;;51.47;25.52;;;;;;;;;;5075880;28;20592;-64
2022/03/22 00:08:12;;;;;;;48.65;24.55;;;;;;;;;;5077235;28;20135;-64
2022/03/22 00:10:38;;;;;;;51.42;26.85;;;;;;;;;;5094332;28;20059;-64
2022/03/22 00:13:05;;;;;;;46.95;24.73;;;;;;;;;;5074730;28;20137;-64
2022/03/22 00:15:33;;;;;;;45.63;24.85;;;;;;;;;;5089291;28;20131;-64
2022/03/22 00:18:19;;;;;;;45.47;23.83;;;;;;;;;;5089688;28;20087;-64
2022/03/22 00:20:46;;;;;;;46.03;24.40;;;;;;;;;;5081252;28;20140;-64
2022/03/22 00:23:13;;;;;;;56.35;25.85;;;;;;;;;;5075963;28;20079;-64
2022/03/22 00:25:39;;;;;;;50.35;24.95;;;;;;;;;;5081281;28;20496;-64
2022/03/22 00:28:05;;;;;;;51.47;24.45;;;;;;;;;;5069784;28;20065;-64
2022/03/22 00:30:33;;;;;;;50.50;25.98;;;;;;;;;;5075470;28;20048;-64
2022/03/22 00:33:00;;;;;;;50.10;26.13;;;;;;;;;;5089051;28;20585;-64
2022/03/22 00:35:28;;;;;;;50.03;25.08;;;;;;;;;;5084412;28;20139;-64
2022/03/22 00:37:56;;;;;;;44.58;25.02;;;;;;;;;;5069358;28;20143;-64
2022/03/22 00:40:22;;;;;;;;;;;;;;;;;;5073131;28;20140;-64
2022/03/22 00:42:51;;;;;;;51.20;24.42;;;;;;;;;;5087886;28;46117;-64
2022/03/22 00:45:17;;;;;;;;;;;;;;;;;;5087893;28;20048;-64
2022/03/22 00:47:44;;;;;;;49.15;25.08;;;;;;;;;;5087475;28;44903;-64
2022/03/22 00:50:12;;;;;;;57.72;27.75;;;;;;;;;;5088420;28;20505;-64
2022/03/22 00:52:38;;;;;;;50.85;27.08;;;;;;;;;;5089434;28;20146;-64
2022/03/22 00:55:05;;;;;;;50.03;26.48;;;;;;;;;;5089046;28;20163;-64
2022/03/22 00:57:33;;;;;;;52.47;26.77;;;;;;;;;;5069128;28;20570;-64
2022/03/22 01:00:05;;;;;;;48.30;26.02;;;;;;;;;;5069433;28;20172;-64
2022/03/22 01:02:35;;;;;;;47.05;26.00;;;;;;;;;;5080659;28;20062;-64
2022/03/22 01:05:03;;;;;;;46.67;25.27;;;;;;;;;;5089152;28;20060;-64
2022/03/22 01:07:29;;;;;;;55.10;26.00;;;;;;;;;;5082240;28;20061;-64
2022/03/22 01:09:56;;;;;;;56.47;26.42;;;;;;;;;;5080663;28;20080;-64
2022/03/22 01:12:22;;;;;;;49.05;25.33;;;;;;;;;;5070364;28;20061;-64
2022/03/22 01:14:49;;;;;;;51.20;25.63;;;;;;;;;;5086635;28;20139;-64
2022/03/22 01:17:16;;;;;;;48.45;25.60;;;;;;;;;;5070230;28;20123;-64
2022/03/22 01:19:42;;;;;;;51.78;25.75;;;;;;;;;;5068986;28;20119;-64
2022/03/22 01:22:08;;;;;;;49.25;27.25;;;;;;;;;;5073592;28;20126;-64
2022/03/22 01:24:35;;;;;;;50.83;26.60;;;;;;;;;;5076261;28;20049;-64
2022/03/22 01:27:01;;;;;;;51.80;26.23;;;;;;;;;;5080262;28;20056;-64
2022/03/22 01:29:28;;;;;;;51.45;26.60;;;;;;;;;;5071128;28;22192;-64
2022/03/22 01:31:55;;;;;;;47.15;26.17;;;;;;;;;;5087002;28;20066;-64
2022/03/22 01:34:21;;;;;;;49.78;25.63;;;;;;;;;;5079684;28;20052;-64
2022/03/22 01:36:47;;;;;;;48.80;26.27;;;;;;;;;;5077624;28;20064;-64
2022/03/22 01:39:14;;;;;;;48.08;25.33;;;;;;;;;;5087873;28;20160;-64
2022/03/22 01:41:40;;;;;;;48.15;26.17;;;;;;;;;;5087764;28;20084;-64
2022/03/22 01:44:06;;;;;;;50.72;26.65;;;;;;;;;;5068293;28;20060;-64
2022/03/22 01:46:34;;;;;;;55.33;29.45;;;;;;;;;;5074315;28;20073;-64
2022/03/22 01:49:01;;;;;;;50.85;26.27;;;;;;;;;;5087327;28;20151;-64
2022/03/22 01:51:31;;;;;;;50.60;27.42;;;;;;;;;;5084263;28;20057;-64
2022/03/22 01:53:58;;;;;;;55.92;28.63;;;;;;;;;;5072047;28;20065;-64
2022/03/22 01:56:24;;;;;;;47.30;25.65;;;;;;;;;;5067006;28;20524;-64
2022/03/22 01:58:51;;;;;;;54.80;27.23;;;;;;;;;;5067200;28;20510;-64
2022/03/22 02:06:51;;;;;;;52.58;25.95;;;;;;;;;;5083480;28;20582;-64
2022/03/22 02:09:17;;;;;;;51.58;26.92;;;;;;;;;;5086532;28;20143;-64
2022/03/22 02:11:44;;;;;;;58.83;27.63;;;;;;;;;;5076296;28;20169;-64
2022/03/22 02:14:11;;;;;;;51.15;26.00;;;;;;;;;;5066448;28;20051;-64
2022/03/22 02:16:37;;;;;;;51.17;26.85;;;;;;;;;;5076362;28;20059;-63
2022/03/22 02:19:07;;;;;;;55.50;27.27;;;;;;;;;;5081159;28;20061;-64
2022/03/22 02:21:35;;;;;;;51.08;26.92;;;;;;;;;;5074281;28;20148;-64
2022/03/22 02:24:01;;;;;;;51.90;26.42;;;;;;;;;;5081503;28;20064;-64
2022/03/22 02:26:28;;;;;;;52.33;26.05;;;;;;;;;;5068445;28;20516;-63
2022/03/22 02:28:54;;;;;;;55.15;27.20;;;;;;;;;;5078247;28;20053;-64
2022/03/22 02:31:22;;;;;;;55.15;28.30;;;;;;;;;;5081681;28;20081;-64
2022/03/22 02:33:48;;;;;;;54.88;27.70;;;;;;;;;;5069145;28;20588;-63
2022/03/22 02:36:15;;;;;;;50.30;26.60;;;;;;;;;;5069250;28;20057;-64
2022/03/22 02:38:41;;;;;;;49.88;26.63;;;;;;;;;;5071380;28;20151;-64
2022/03/22 02:41:13;;;;;;;51.60;27.48;;;;;;;;;;5075592;28;20541;-64
2022/03/22 02:43:40;;;;;;;50.83;26.45;;;;;;;;;;5082175;28;20056;-64
2022/03/22 02:46:06;;;;;;;53.47;26.42;;;;;;;;;;5080830;28;20067;-64
2022/03/22 02:48:34;;;;;;;53.53;28.40;;;;;;;;;;5066864;28;20049;-64
2022/03/22 02:51:00;;;;;;;54.28;27.73;;;;;;;;;;5071723;28;20503;-64
2022/03/22 02:53:27;;;;;;;50.60;27.38;;;;;;;;;;5077321;28;20135;-64
2022/03/22 02:55:53;;;;;;;49.83;25.08;;;;;;;;;;5076529;28;20423;-64
2022/03/22 02:58:19;;;;;;;50.13;26.42;;;;;;;;;;5070320;28;20053;-64
2022/03/22 03:00:46;;;;;;;54.22;27.10;;;;;;;;;;5086825;28;20079;-64
2022/03/22 03:03:12;;;;;;;52.97;26.58;;;;;;;;;;5070159;28;20049;-63
2022/03/22 03:05:38;;;;;;;49.28;26.38;;;;;;;;;;5070427;28;20057;-63
2022/03/22 03:08:06;;;;;;;49.15;26.23;;;;;;;;;;5076640;28;20163;-64
2022/03/22 03:10:33;;;;;;;49.72;25.98;;;;;;;;;;5081538;28;20126;-63
2022/03/22 03:13:00;;;;;;;57.30;27.80;;;;;;;;;;5077204;28;20511;-63
2022/03/22 03:15:27;;;;;;;49.55;25.60;;;;;;;;;;5089669;28;20079;-64
2022/03/22 03:17:53;;;;;;;56.58;27.67;;;;;;;;;;5070915;28;20061;-63
2022/03/22 03:20:20;;;;;;;54.17;27.33;;;;;;;;;;5070372;28;20124;-64
2022/03/22 03:22:47;;;;;;;52.08;25.67;;;;;;;;;;5072371;28;20152;-64
2022/03/22 03:25:13;;;;;;;48.22;24.92;;;;;;;;;;5089687;28;20055;-63
2022/03/22 03:27:40;;;;;;;52.70;27.25;;;;;;;;;;5086883;28;20120;-64
2022/03/22 03:30:07;;;;;;;54.88;26.40;;;;;;;;;;5078876;28;20049;-64
2022/03/22 03:32:33;;;;;;;50.55;25.85;;;;;;;;;;5081957;28;20059;-63
2022/03/22 03:35:00;;;;;;;54.80;25.85;;;;;;;;;;5069738;28;20049;-63
2022/03/22 03:37:32;;;;;;;54.85;27.88;;;;;;;;;;5068716;28;20061;-64
2022/03/22 03:39:59;;;;;;;55.63;27.15;;;;;;;;;;5069929;28;20933;-64
2022/03/22 03:42:25;;;;;;;50.60;27.52;;;;;;;;;;5069618;28;20053;-64
2022/03/22 03:47:37;;;;;;;47.22;24.52;;;;;;;;;;5084428;28;20195;-63
2022/03/22 03:50:05;;;;;;;52.92;26.65;;;;;;;;;;5073093;28;20056;-63
2022/03/22 03:52:33;;;;;;;49.20;26.45;;;;;;;;;;5077776;28;20096;-64
2022/03/22 03:55:00;;;;;;;52.72;27.05;;;;;;;;;;5073339;28;20238;-64
2022/03/22 03:57:27;;;;;;;50.08;25.63;;;;;;;;;;5080866;28;20060;-64
2022/03/22 03:59:54;;;;;;;58.67;27.65;;;;;;;;;;5072176;28;20053;-63
2022/03/22 04:02:21;;;;;;;51.45;26.23;;;;;;;;;;5075132;28;20519;-64
2022/03/22 04:04:57;;;;;;;48.40;26.27;;;;;;;;;;5069833;28;20060;-64
2022/03/22 04:07:24;;;;;;;51.75;26.27;;;;;;;;;;5071617;28;20530;-63
2022/03/22 04:09:50;;;;;;;52.75;26.10;;;;;;;;;;5076797;28;20049;-63
2022/03/22 04:12:17;;;;;;;53.08;26.95;;;;;;;;;;5082218;28;20065;-63
2022/03/22 04:14:43;;;;;;;50.78;27.27;;;;;;;;;;5075871;28;20610;-63
2022/03/22 04:17:10;;;;;;;55.17;27.73;;;;;;;;;;5080531;28;20132;-63
2022/03/22 04:19:36;;;;;;;47.95;25.73;;;;;;;;;;5081715;28;20136;-64
2022/03/22 04:22:03;;;;;;;52.03;26.60;;;;;;;;;;5069349;28;20075;-64
2022/03/22 04:24:29;;;;;;;53.28;27.52;;;;;;;;;;5068708;28;20127;-63
2022/03/22 04:32:41;;;;;;;45.33;24.58;;;;;;;;;;5069528;28;20053;-63
2022/03/22 04:32:42;;;;;;;54.50;27.85;;;;;;;;;;5071895;28;20391;-63
2022/03/22 04:35:13;;;;;;;53.00;27.45;;;;;;;;;;5076448;28;20139;-63
2022/03/22 04:37:40;;;;;;;53.72;27.02;;;;;;;;;;5080023;28;21949;-64
2022/03/22 04:40:07;;;;;;;46.88;24.95;;;;;;;;;;5071650;28;20624;-63
2022/03/22 04:42:35;;;;;;;58.47;28.77;;;;;;;;;;5068014;28;20081;-63
2022/03/22 04:45:01;;;;;;;53.95;26.05;;;;;;;;;;5076418;28;20147;-63
2022/03/22 04:47:29;;;;;;;46.05;25.90;;;;;;;;;;5079891;28;20092;-63
2022/03/22 04:49:55;;;;;;;53.20;25.80;;;;;;;;;;5076061;28;20049;-64
2022/03/22 04:57:52;;;;;;;46.75;24.23;;;;;;;;;;5067184;28;21991;-63
2022/03/22 05:00:19;;;;;;;50.75;25.42;;;;;;;;;;5070504;28;20075;-63
2022/03/22 05:02:47;;;;;;;52.28;26.85;;;;;;;;;;5085740;28;20053;-63
2022/03/22 05:05:15;;;;;;;52.08;26.25;;;;;;;;;;5070874;28;20084;-63
2022/03/22 05:07:41;;;;;;;53.80;26.73;;;;;;;;;;5083505;28;20057;-63
2022/03/22 05:10:08;;;;;;;52.58;24.85;;;;;;;;;;5086193;28;20049;-63
2022/03/22 05:12:37;;;;;;;55.53;26.60;;;;;;;;;;5070679;28;20068;-63
2022/03/22 05:15:04;;;;;;;48.08;25.73;;;;;;;;;;5083652;28;20125;-63
2022/03/22 05:17:30;;;;;;;50.47;25.75;;;;;;;;;;5076869;28;20056;-63
2022/03/22 05:19:57;;;;;;;52.00;26.63;;;;;;;;;;5074876;28;20053;-63
2022/03/22 05:22:24;;;;;;;48.60;25.58;;;;;;;;;;5069204;28;20053;-64
2022/03/22 05:24:52;;;;;;;56.08;26.23;;;;;;;;;;5080383;28;20057;-64
2022/03/22 05:27:18;;;;;;;47.42;25.38;;;;;;;;;;5078233;28;20144;-63
2022/03/22 05:29:44;;;;;;;51.95;26.25;;;;;;;;;;5070977;28;20079;-63
2022/03/22 05:32:11;;;;;;;56.88;27.77;;;;;;;;;;5066392;28;20559;-63
2022/03/22 05:34:37;;;;;;;55.67;26.38;;;;;;;;;;5070463;28;20089;-63
2022/03/22 05:37:04;;;;;;;54.63;27.02;;;;;;;;;;5077726;28;20056;-64
2022/03/22 05:39:30;;;;;;;52.17;26.63;;;;;;;;;;5080330;28;20063;-63
2022/03/22 05:41:57;;;;;;;50.35;26.30;;;;;;;;;;5073389;28;20135;-64
2022/03/22 05:44:24;;;;;;;51.03;26.77;;;;;;;;;;5076383;28;20055;-63
2022/03/22 05:46:50;;;;;;;52.28;26.90;;;;;;;;;;5093206;28;20056;-63
2022/03/22 05:49:16;;;;;;;52.13;26.25;;;;;;;;;;5088490;28;20052;-63
2022/03/22 05:51:43;;;;;;;50.53;25.75;;;;;;;;;;5088185;28;20057;-63
2022/03/22 05:54:09;;;;;;;59.03;26.10;;;;;;;;;;5088947;28;20135;-63
2022/03/22 05:56:35;;;;;;;47.10;26.00;;;;;;;;;;5086462;27;20059;-63
2022/03/22 05:59:02;;;;;;;49.95;26.13;;;;;;;;;;5076242;28;20545;-63
2022/03/22 06:01:29;;;;;;;50.38;27.10;;;;;;;;;;5067298;28;20480;-63
2022/03/22 06:03:56;;;;;;;49.65;26.35;;;;;;;;;;5088048;28;20169;-63
2022/03/22 06:06:23;;;;;;;52.15;26.98;;;;;;;;;;5081704;28;20053;-63
2022/03/22 06:08:50;;;;;;;51.03;26.13;;;;;;;;;;5079752;28;20063;-64
2022/03/22 06:11:17;;;;;;;52.43;26.13;;;;;;;;;;5076588;28;20060;-64
2022/03/22 06:13:44;;;;;;;46.00;24.40;;;;;;;;;;5087849;28;20147;-64
2022/03/22 06:16:10;;;;;;;48.85;25.63;;;;;;;;;;5088365;28;20049;-64
2022/03/22 06:18:37;;;;;;;52.33;26.00;;;;;;;;;;5083346;28;20059;-63
2022/03/22 06:21:03;;;;;;;51.08;25.13;;;;;;;;;;5077617;28;20426;-63
2022/03/22 06:23:29;;;;;;;51.35;25.48;;;;;;;;;;5083620;28;20057;-63
2022/03/22 06:25:56;;;;;;;46.03;25.75;;;;;;;;;;5068709;28;20068;-64
2022/03/22 06:28:22;;;;;;;51.10;25.83;;;;;;;;;;5082269;28;20055;-64
2022/03/22 06:30:49;;;;;;;52.50;26.77;;;;;;;;;;5080209;28;20056;-64
2022/03/22 06:33:22;;;;;;;47.75;25.17;;;;;;;;;;5070892;28;20136;-64
2022/03/22 06:35:48;;;;;;;49.88;26.80;;;;;;;;;;5071488;28;20525;-64
2022/03/22 06:38:15;;;;;;;54.40;26.95;;;;;;;;;;5071879;28;20062;-64
2022/03/22 06:40:42;;;;;;;47.03;26.30;;;;;;;;;;5088083;28;20103;-64
2022/03/22 06:43:10;;;;;;;49.15;25.52;;;;;;;;;;5090728;28;20053;-63
2022/03/22 06:45:37;;;;;;;53.13;25.50;;;;;;;;;;5091114;28;20143;-63
2022/03/22 06:48:04;;;;;;;48.67;25.80;;;;;;;;;;5072659;28;20049;-64
2022/03/22 06:50:31;;;;;;;47.97;25.30;;;;;;;;;;5072014;28;20144;-65
2022/03/22 06:52:57;;;;;;;52.10;26.45;;;;;;;;;;5077590;28;20481;-65
2022/03/22 06:55:24;;;;;;;50.00;26.23;;;;;;;;;;5085553;28;20919;-65
2022/03/22 06:57:56;;;;;;;52.45;25.10;;;;;;;;;;5075355;28;20061;-64
2022/03/22 07:00:22;;;;;;;50.97;26.60;;;;;;;;;;5090933;28;20087;-63
2022/03/22 07:02:49;;;;;;;51.47;25.88;;;;;;;;;;5081152;28;20053;-65
2022/03/22 07:05:16;;;;;;;51.67;26.25;;;;;;;;;;5077354;28;20493;-65
2022/03/22 07:07:43;;;;;;;49.33;25.45;;;;;;;;;;5088705;28;20460;-65
2022/03/22 07:10:10;;;;;;;48.08;26.00;;;;;;;;;;5078329;28;20148;-63
2022/03/22 07:12:53;;;;;;;49.70;26.60;;;;;;;;;;5072817;28;20057;-64
2022/03/22 07:15:23;;;;;;;51.60;25.60;;;;;;;;;;5070451;28;20060;-64
2022/03/22 07:17:50;;;;;;;50.40;24.67;;;;;;;;;;5069459;28;20053;-63
2022/03/22 07:20:17;;;;;;;47.30;24.98;;;;;;;;;;5069865;28;20533;-63
2022/03/22 07:22:43;;;;;;;46.67;24.52;;;;;;;;;;5070255;28;20182;-63
2022/03/22 07:25:09;;;;;;;49.38;25.83;;;;;;;;;;5070217;28;20092;-63
2022/03/22 07:27:36;;;;;;;45.22;24.48;;;;;;;;;;5069956;28;20077;-63
2022/03/22 07:30:03;;;;;;;42.08;22.63;;;;;;;;;;5069891;28;20053;-62
2022/03/22 07:32:29;;;;;;;42.40;23.23;;;;;;;;;;5089602;28;20136;-67
2022/03/22 07:34:59;;;;;;;43.20;22.48;;;;;;;;;;5088063;28;20052;-63
2022/03/22 07:37:26;;;;;;;39.85;22.55;;;;;;;;;;5085488;28;20067;-61
2022/03/22 07:39:53;;;;;;;49.22;24.10;;;;;;;;;;5089132;27;20590;-61
2022/03/22 07:42:19;;;;;;;46.20;23.83;;;;;;;;;;5090502;27;20139;-63
2022/03/22 07:44:45;;;;;;;48.35;23.27;;;;;;;;;;5098067;27;20179;-63
2022/03/22 07:47:13;;;;;;;42.10;22.27;;;;;;;;;;5106007;28;20048;-63
2022/03/22 07:55:10;;;;;;;37.08;20.02;;;;;;;;;;5083785;27;20063;-64
2022/03/22 07:57:36;;;;;;;33.75;18.75;;;;;;;;;;5098709;28;20048;-65
2022/03/22 08:00:04;;;;;;;38.65;19.13;;;;;;;;;;5101723;27;20663;-64
2022/03/22 08:02:32;;;;;;;36.03;19.87;;;;;;;;;;5090240;28;20079;-64
2022/03/22 08:04:59;;;;;;;29.67;18.20;;;;;;;;;;5094390;27;20507;-64
2022/03/22 08:07:25;;;;;;;29.77;18.58;;;;;;;;;;5098085;28;20106;-64
2022/03/22 08:09:52;;;;;;;34.05;17.48;;;;;;;;;;5088929;27;20107;-64
2022/03/22 08:12:18;;;;;;;33.42;18.77;;;;;;;;;;5088621;28;20079;-64
2022/03/22 08:14:44;;;;;;;31.50;18.23;;;;;;;;;;5095830;27;20088;-63
2022/03/22 08:17:11;;;;;;;32.78;18.50;;;;;;;;;;5081962;28;20064;-64
2022/03/22 08:19:37;;;;;;;27.35;16.58;;;;;;;;;;5072546;28;20099;-63
2022/03/22 08:22:05;;;;;;;34.97;18.55;;;;;;;;;;5086561;28;20181;-63
2022/03/22 08:24:31;;;;;;;32.28;17.75;;;;;;;;;;5094233;27;20159;-64
2022/03/22 08:26:58;;;;;;;34.10;17.70;;;;;;;;;;5078371;28;20052;-63
2022/03/22 08:29:25;;;;;;;33.85;17.60;;;;;;;;;;5087945;28;20556;-62
2022/03/22 08:31:52;;;;;;;33.28;16.52;;;;;;;;;;5094744;27;20584;-65
2022/03/22 08:34:19;;;;;;;30.55;16.63;;;;;;;;;;5083397;28;20056;-63
2022/03/22 08:36:45;;;;;;;32.60;16.65;;;;;;;;;;5078771;28;20057;-63
2022/03/22 08:39:12;;;;;;;33.10;17.83;;;;;;;;;;5086588;28;20048;-62
2022/03/22 08:41:39;;;;;;;31.50;17.42;;;;;;;;;;5081099;28;20140;-63
2022/03/22 08:44:05;;;;;;;31.20;18.27;;;;;;;;;;5081626;28;20083;-64
2022/03/22 08:46:32;;;;;;;30.02;17.38;;;;;;;;;;5099769;28;20051;-61
2022/03/22 08:48:58;;;;;;;35.25;19.73;;;;;;;;;;5100369;27;20059;-62
2022/03/22 08:51:25;;;;;;;30.13;17.65;;;;;;;;;;5080768;27;20066;-63
2022/03/22 08:53:52;;;;;;;29.73;16.17;;;;;;;;;;5085671;27;20149;-63
2022/03/22 08:56:18;;;;;;;29.17;16.40;;;;;;;;;;5086711;28;20152;-62
2022/03/22 08:58:45;;;;;;;32.78;16.40;;;;;;;;;;5083396;28;20582;-63
2022/03/22 09:01:12;;;;;;;32.17;16.98;;;;;;;;;;5072069;28;20057;-62
2022/03/22 09:03:38;;;;;;;28.75;17.05;;;;;;;;;;5077040;28;20048;-62
2022/03/22 09:06:08;;;;;;;26.25;15.02;;;;;;;;;;5081729;28;20053;-62
2022/03/22 09:08:36;;;;;;;25.80;13.77;;;;;;;;;;5078391;28;20053;-64
2022/03/22 09:11:03;;;;;;;28.73;13.68;;;;;;;;;;5082643;28;20056;-64
2022/03/22 09:13:35;;;;;;;33.45;13.98;;;;;;;;;;5092042;28;20064;-64
2022/03/22 09:16:02;;;;;;;28.45;13.38;;;;;;;;;;5088054;28;20099;-64
2022/03/22 09:18:29;;;;;;;30.02;13.55;;;;;;;;;;5094396;28;20059;-64
2022/03/22 09:20:56;;;;;;;23.80;13.82;;;;;;;;;;5090558;27;20587;-64
2022/03/22 09:23:22;;;;;;;22.23;11.95;;;;;;;;;;5093610;28;20083;-64
2022/03/22 09:25:49;;;;;;;24.67;13.25;;;;;;;;;;5077289;27;20059;-65
2022/03/22 09:28:15;;;;;;;24.38;13.05;;;;;;;;;;5079623;28;20063;-65
2022/03/22 09:30:42;;;;;;;22.75;12.57;;;;;;;;;;5081473;27;20063;-64
2022/03/22 09:33:11;;;;;;;27.67;12.60;;;;;;;;;;5087510;28;20516;-64
2022/03/22 09:35:37;;;;;;;26.00;13.32;;;;;;;;;;5098177;28;20083;-64
2022/03/22 09:38:04;;;;;;;25.00;12.68;;;;;;;;;;5088788;28;20166;-63
2022/03/22 09:40:33;;;;;;;20.88;12.05;;;;;;;;;;5096896;27;20532;-64
2022/03/22 09:42:59;;;;;;;21.27;12.18;;;;;;;;;;5095842;28;20148;-65
2022/03/22 09:45:27;;;;;;;23.55;12.10;;;;;;;;;;5087495;27;20144;-65
2022/03/22 09:47:53;;;;;;;25.13;13.07;;;;;;;;;;5087745;28;20163;-65
2022/03/22 09:51:44;;;;;;;27.75;15.77;;;;;;;;;;5094139;27;20602;-64
2022/03/22 09:53:08;;;;;;;30.02;17.02;;;;;;;;;;5077624;28;20052;-65
2022/03/22 09:55:34;;;;;;;28.73;16.45;;;;;;;;;;5076937;28;20580;-64
2022/03/22 09:58:01;;;;;;;32.97;17.98;;;;;;;;;;5073934;28;20617;-64
2022/03/22 10:00:27;;;;;;;35.63;18.45;;;;;;;;;;5076201;28;20056;-65
2022/03/22 10:02:54;;;;;;;27.42;17.35;;;;;;;;;;5092736;28;20521;-65
2022/03/22 10:05:22;;;;;;;32.65;18.65;;;;;;;;;;5079011;28;20168;-64
2022/03/22 10:07:55;;;;;;;36.05;18.08;;;;;;;;;;5081509;27;20044;-65
2022/03/22 10:10:21;;;;;;;34.80;18.23;;;;;;;;;;5083828;28;20076;-64
2022/03/22 10:12:54;;;;;;;30.38;18.20;;;;;;;;;;5083517;28;20624;-64
2022/03/22 10:15:27;;;;;;;33.85;18.88;;;;;;;;;;5100955;28;20148;-64
2022/03/22 10:17:59;;;;;;;31.67;17.88;;;;;;;;;;5089297;28;20084;-64
2022/03/22 10:20:26;;;;;;;31.42;17.95;;;;;;;;;;5089605;27;20143;-64
2022/03/22 10:22:56;;;;;;;33.15;17.95;;;;;;;;;;5093969;27;20524;-65
2022/03/22 10:25:23;;;;;;;34.47;17.63;;;;;;;;;;5082970;28;20053;-64
2022/03/22 10:27:52;;;;;;;33.75;18.52;;;;;;;;;;5094940;27;20648;-62
2022/03/22 10:30:25;;;;;;;28.70;17.25;;;;;;;;;;5086069;28;20077;-64
2022/03/22 10:32:54;;;;;;;28.63;18.70;;;;;;;;;;5093579;27;20139;-63
2022/03/22 10:35:25;;;;;;;32.75;18.85;;;;;;;;;;5092404;28;20143;-63
2022/03/22 10:38:08;;;;;;;32.78;18.67;;;;;;;;;;5086301;27;20056;-63
2022/03/22 10:40:34;;;;;;;30.92;18.75;;;;;;;;;;5079055;28;20586;-63
2022/03/22 10:43:06;;;;;;;32.55;18.75;;;;;;;;;;5078137;28;20977;-63
2022/03/22 10:45:43;;;;;;;34.22;19.10;;;;;;;;;;5081137;28;20162;-64
2022/03/22 10:48:10;;;;;;;36.78;18.95;;;;;;;;;;5093820;28;20486;-63
2022/03/22 10:50:37;;;;;;;29.08;17.77;;;;;;;;;;5093946;27;20053;-64
2022/03/22 10:53:04;;;;;;;36.75;19.05;;;;;;;;;;5080664;28;20068;-64
2022/03/22 10:55:30;;;;;;;30.27;18.35;;;;;;;;;;5094674;28;20049;-64
2022/03/22 10:58:00;;;;;;;34.80;19.65;;;;;;;;;;5096447;27;20053;-64
2022/03/22 11:00:27;;;;;;;33.20;18.77;;;;;;;;;;5086849;28;20058;-64
2022/03/22 11:02:56;;;;;;;30.10;18.23;;;;;;;;;;5093985;27;20901;-64
2022/03/22 11:05:24;;;;;;;31.25;19.08;;;;;;;;;;5086078;28;20079;-64
2022/03/22 11:07:51;;;;;;;41.00;19.17;;;;;;;;;;5103241;27;20091;-65
2022/03/22 11:10:30;;;;;;;36.33;18.88;;;;;;;;;;5083728;28;20048;-64
2022/03/22 11:12:58;;;;;;;30.95;16.58;;;;;;;;;;5094162;28;20528;-64
2022/03/22 11:15:25;;;;;;;32.10;17.58;;;;;;;;;;5100375;27;20068;-64
2022/03/22 11:17:52;;;;;;;31.60;17.10;;;;;;;;;;5092254;27;20082;-64
2022/03/22 11:20:18;;;;;;;31.75;18.33;;;;;;;;;;5093155;27;20498;-64
2022/03/22 11:22:47;;;;;;;30.17;17.60;;;;;;;;;;5094846;28;20153;-67
2022/03/22 11:25:18;;;;;;;29.67;17.60;;;;;;;;;;5094545;27;20609;-67
2022/03/22 11:27:57;;;;;;;31.23;16.83;;;;;;;;;;5077360;28;20052;-63
2022/03/22 11:30:25;;;;;;;29.58;15.75;;;;;;;;;;5087645;28;20059;-65
2022/03/22 11:35:47;;;;;;;26.65;15.05;;;;;;;;;;5096154;28;20048;-64
2022/03/22 11:38:33;;;;;;;28.92;15.50;;;;;;;;;;5102446;27;20067;-64
2022/03/22 11:43:46;;;;;;;244.20;27.80;;;;;;;;;;5077341;28;20109;-64
2022/03/22 11:46:12;;;;;;;25.73;14.50;;;;;;;;;;5104580;27;20055;-64
2022/03/22 11:48:39;;;;;;;26.17;15.40;;;;;;;;;;5098319;27;20313;-64
2022/03/22 11:51:10;;;;;;;24.05;14.50;;;;;;;;;;5099315;28;20058;-64
2022/03/22 11:53:43;;;;;;;26.92;14.50;;;;;;;;;;5092346;28;20094;-64
2022/03/22 11:56:13;;;;;;;26.25;14.88;;;;;;;;;;5092294;27;20156;-64
2022/03/22 11:58:49;;;;;;;24.27;14.57;;;;;;;;;;5092270;28;20433;-64
2022/03/22 12:01:22;;;;;;;20.65;10.80;;;;;;;;;;5088578;27;20084;-64
2022/03/22 12:03:51;;;;;;;21.98;11.38;;;;;;;;;;5076453;28;20737;-64
2022/03/22 12:06:17;;;;;;;;;;;;;;;;;;5099847;27;20064;-64
2022/03/22 12:08:44;;;;;;;26.73;11.05;;;;;;;;;;5089807;28;44788;-64
2022/03/22 12:11:15;;;;;;;23.00;11.57;;;;;;;;;;5094087;28;20052;-64
2022/03/22 12:13:45;;;;;;;27.73;10.63;;;;;;;;;;5084286;28;20060;-64
2022/03/22 12:16:11;;;;;;;23.52;11.73;;;;;;;;;;5096872;28;20037;-65
2022/03/22 12:18:39;;;;;;;20.48;11.43;;;;;;;;;;5098852;27;20060;-65
2022/03/22 12:21:14;;;;;;;33.28;9.75;;;;;;;;;;5077220;28;20053;-67
2022/03/22 12:23:41;;;;;;;17.30;9.02;;;;;;;;;;5085673;28;20510;-66
2022/03/22 12:26:08;;;;;;;19.50;10.63;;;;;;;;;;5088166;28;20058;-66
2022/03/22 12:28:34;;;;;;;23.83;11.65;;;;;;;;;;5092900;27;20048;-65
2022/03/22 12:31:01;;;;;;;22.20;10.43;;;;;;;;;;5077593;28;20059;-65
2022/03/22 12:33:27;;;;;;;22.50;11.77;;;;;;;;;;5071160;28;20921;-65
2022/03/22 12:35:54;;;;;;;21.38;11.68;;;;;;;;;;5097604;27;20068;-65
2022/03/22 12:38:20;;;;;;;20.17;10.73;;;;;;;;;;5082926;28;20566;-65
2022/03/22 12:40:47;;;;;;;22.70;8.65;;;;;;;;;;5084763;28;20155;-65
2022/03/22 12:43:19;;;;;;;16.00;8.73;;;;;;;;;;5086719;28;20084;-65
2022/03/22 12:45:48;;;;;;;19.42;9.30;;;;;;;;;;5073543;28;20064;-65
2022/03/22 12:48:14;;;;;;;;;;;;;;;;;;5092386;28;20588;-65
2022/03/22 12:50:41;;;;;;;17.65;8.20;;;;;;;;;;5099149;28;45610;-65
2022/03/22 12:53:07;;;;;;;16.10;8.02;;;;;;;;;;5083394;27;20571;-65
2022/03/22 12:55:33;;;;;;;13.80;7.55;;;;;;;;;;5075344;28;20176;-65
2022/03/22 12:58:01;;;;;;;18.00;8.32;;;;;;;;;;5080821;27;20056;-65
2022/03/22 13:00:28;;;;;;;15.43;8.45;;;;;;;;;;5094250;28;20060;-65
2022/03/22 13:02:56;;;;;;;17.40;8.60;;;;;;;;;;5096306;27;20508;-66
2022/03/22 13:05:28;;;;;;;21.13;8.45;;;;;;;;;;5090029;28;20636;-66
2022/03/22 13:08:24;;;;;;;15.05;7.28;;;;;;;;;;5082415;27;20056;-65
2022/03/22 13:16:27;;;;;;;15.30;7.93;;;;;;;;;;5082171;28;20475;-66
2022/03/22 13:18:58;;;;;;;17.20;7.40;;;;;;;;;;5089822;28;20053;-66
2022/03/22 13:21:25;;;;;;;18.52;8.80;;;;;;;;;;5071320;28;20057;-67
2022/03/22 13:23:58;;;;;;;17.95;8.63;;;;;;;;;;5084733;28;20053;-69
2022/03/22 13:26:24;;;;;;;16.27;7.75;;;;;;;;;;5087361;28;20148;-66
2022/03/22 13:28:51;;;;;;;18.15;9.15;;;;;;;;;;5083679;27;20572;-66
2022/03/22 13:31:21;;;;;;;16.58;8.98;;;;;;;;;;5088217;28;20055;-67
2022/03/22 13:33:54;;;;;;;17.75;9.73;;;;;;;;;;5100777;27;20139;-67
2022/03/22 13:36:21;;;;;;;17.02;9.27;;;;;;;;;;5087103;28;20510;-66
2022/03/22 13:38:49;;;;;;;20.17;9.90;;;;;;;;;;5091967;28;20151;-66
2022/03/22 13:41:29;;;;;;;20.52;9.88;;;;;;;;;;5100196;28;20048;-67
2022/03/22 13:43:55;;;;;;;19.08;10.02;;;;;;;;;;5071015;28;20059;-66
2022/03/22 13:46:22;;;;;;;19.13;8.95;;;;;;;;;;5082521;28;20064;-66
2022/03/22 13:48:52;;;;;;;20.92;9.23;;;;;;;;;;5081042;28;20057;-66
2022/03/22 13:51:20;;;;;;;15.40;9.10;;;;;;;;;;5086599;28;20063;-67
2022/03/22 13:53:47;;;;;;;16.38;9.13;;;;;;;;;;5100283;27;20060;-66
2022/03/22 13:56:14;;;;;;;19.02;10.35;;;;;;;;;;5092101;27;20866;-67
2022/03/22 13:58:49;;;;;;;22.83;11.20;;;;;;;;;;5085838;28;20056;-69
2022/03/22 14:01:16;;;;;;;19.40;10.65;;;;;;;;;;5080250;28;20446;-69
2022/03/22 14:03:43;;;;;;;21.13;11.48;;;;;;;;;;5070648;28;20593;-67
2022/03/22 14:06:10;;;;;;;20.33;11.07;;;;;;;;;;5081548;28;20098;-66
2022/03/22 14:08:38;;;;;;;20.70;10.30;;;;;;;;;;5081354;28;20132;-66
2022/03/22 14:11:04;;;;;;;20.20;10.52;;;;;;;;;;5086870;28;20048;-68
2022/03/22 14:13:34;;;;;;;21.60;11.50;;;;;;;;;;5079847;28;20065;-67
2022/03/22 14:16:00;;;;;;;20.52;12.45;;;;;;;;;;5102304;27;20143;-66
2022/03/22 14:18:26;;;;;;;23.95;12.32;;;;;;;;;;5081510;28;20160;-67
2022/03/22 14:20:54;;;;;;;20.30;11.02;;;;;;;;;;5070375;28;20061;-67
2022/03/22 14:23:20;;;;;;;19.35;10.15;;;;;;;;;;5070275;28;20053;-67
2022/03/22 14:25:48;;;;;;;20.13;10.30;;;;;;;;;;5088083;27;20543;-66
2022/03/22 14:28:15;;;;;;;22.43;11.07;;;;;;;;;;5087462;27;20266;-67
2022/03/22 14:30:44;;;;;;;19.63;11.30;;;;;;;;;;5081748;28;20135;-66
2022/03/22 14:33:11;;;;;;;19.63;10.35;;;;;;;;;;5101671;28;20076;-67
2022/03/22 14:35:47;;;;;;;23.00;10.98;;;;;;;;;;5088482;27;20052;-67
2022/03/22 14:38:21;;;;;;;22.20;11.57;;;;;;;;;;5094806;27;20098;-65
2022/03/22 14:40:48;;;;;;;25.33;13.45;;;;;;;;;;5083502;27;20135;-66
2022/03/22 14:43:21;;;;;;;23.25;13.07;;;;;;;;;;5077293;28;20140;-66
2022/03/22 14:45:48;;;;;;;27.58;13.73;;;;;;;;;;5078004;28;20048;-66
2022/03/22 14:48:18;;;;;;;23.10;13.57;;;;;;;;;;5099529;27;20481;-66
2022/03/22 14:50:46;;;;;;;26.73;13.73;;;;;;;;;;5081013;28;20136;-66
2022/03/22 14:59:02;;;;;;;24.17;13.20;;;;;;;;;;5044696;28;20088;-66
2022/03/22 15:01:31;;;;;;;21.60;13.25;;;;;;;;;;5064469;28;20045;-66